Time;durP1;ratioP1;P1;durP2;ratioP2;P2;SDS_P1;SDS_P2;PMS_P1;PMS_P2;Temp;Humidity;BMP_temperature;BMP_pressure;BME280_temperature;BME280_humidity;BME280_pressure;Samples;Min_cycle;Max_cycle;Signal;HPM_P1;HPM_P2
2024/01/12 00:01:16;;;;;;;0.75;0.65;;;;;;;-3.15;100.00;100463.25;5028427;28;20152;-78
2024/01/12 00:03:41;;;;;;;1.17;1.15;;;;;;;-3.38;100.00;100438.88;5020827;28;20050;-77
2024/01/12 00:06:07;;;;;;;2.05;1.95;;;;;;;-3.50;100.00;100426.25;5037693;28;20585;-76
2024/01/12 00:08:32;;;;;;;13.82;12.93;;;;;;;-2.98;100.00;100498.44;5030668;28;20041;-78
2024/01/12 00:10:58;;;;;;;0.60;0.60;;;;;;;-2.93;100.00;100555.16;5026146;28;20037;-76
2024/01/12 00:13:24;;;;;;;3.35;3.20;;;;;;;-2.80;100.00;100551.63;5030464;28;20124;-77
2024/01/12 00:15:50;;;;;;;0.82;0.82;;;;;;;-2.88;100.00;100533.22;5023304;28;20195;-78
2024/01/12 00:18:16;;;;;;;1.75;1.65;;;;;;;-2.98;100.00;100502.69;5030354;28;20065;-77
2024/01/12 00:20:44;;;;;;;1.98;1.88;;;;;;;-3.30;100.00;100459.81;5028344;28;20041;-79
2024/01/12 00:23:12;;;;;;;0.63;0.63;;;;;;;-2.95;100.00;100550.75;5021783;28;20133;-77
2024/01/12 00:25:37;;;;;;;7.28;6.88;;;;;;;-2.92;100.00;100531.28;5033896;28;20023;-77
2024/01/12 00:28:03;;;;;;;4.35;4.13;;;;;;;-3.37;100.00;100453.50;5029411;28;20112;-76
2024/01/12 00:30:29;;;;;;;3.45;3.25;;;;;;;-3.16;100.00;100535.03;5023966;28;20107;-76
2024/01/12 00:32:54;;;;;;;1.42;1.38;;;;;;;-4.03;100.00;100372.81;5023166;28;20438;-76
2024/01/12 00:35:20;;;;;;;2.88;2.75;;;;;;;-3.48;100.00;100460.56;5023642;28;20128;-76
2024/01/12 00:37:48;;;;;;;3.80;3.60;;;;;;;-3.03;100.00;100534.91;5026683;28;20619;-75
2024/01/12 00:40:14;;;;;;;0.63;0.63;;;;;;;-2.98;100.00;100543.75;5025414;28;20054;-75
2024/01/12 00:42:39;;;;;;;4.07;3.88;;;;;;;-3.59;100.00;100446.25;5029589;28;20045;-75
2024/01/12 00:45:05;;;;;;;5.88;5.63;;;;;;;-3.65;100.00;100449.38;5027273;28;20056;-76
2024/01/12 00:47:32;;;;;;;0.50;0.50;;;;;;;-2.93;100.00;100560.28;5019322;28;20045;-78
2024/01/12 00:49:58;;;;;;;0.82;0.82;;;;;;;-2.88;100.00;100584.56;5008754;28;20038;-77
2024/01/12 00:52:23;;;;;;;1.95;1.85;;;;;;;-3.42;100.00;100522.50;5033178;28;20033;-77
2024/01/12 00:54:49;;;;;;;26.35;17.92;;;;;;;-2.84;100.00;100585.63;5029590;28;20045;-75
2024/01/12 00:57:14;;;;;;;0.52;0.52;;;;;;;-2.97;100.00;100584.94;5022895;28;20041;-78
2024/01/12 00:59:40;;;;;;;1.35;1.25;;;;;;;-2.98;100.00;100570.31;5024096;28;20408;-79
2024/01/12 01:02:05;;;;;;;10.95;9.93;;;;;;;-3.03;100.00;100583.69;5027947;28;20041;-78
2024/01/12 01:04:31;;;;;;;1.00;0.90;;;;;;;-3.25;100.00;100572.19;5022878;28;20033;-78
2024/01/12 01:06:56;;;;;;;3.22;3.05;;;;;;;-3.24;100.00;100571.38;5018004;28;20160;-78
2024/01/12 01:09:22;;;;;;;7.93;7.45;;;;;;;-3.11;100.00;100574.69;5013514;28;20476;-79
2024/01/12 01:11:52;;;;;;;0.47;0.47;;;;;;;-3.17;100.00;100562.38;5022197;28;20516;-77
2024/01/12 01:14:17;;;;;;;0.77;0.65;;;;;;;-3.70;100.00;100435.41;5017468;28;20072;-77
2024/01/12 01:16:43;;;;;;;4.50;4.20;;;;;;;-3.19;100.00;100523.78;4996449;28;20037;-79
2024/01/12 01:19:08;;;;;;;0.45;0.45;;;;;;;-2.98;100.00;100556.59;5020368;28;20060;-78
2024/01/12 01:21:34;;;;;;;1.95;1.85;;;;;;;-3.03;100.00;100561.47;5013341;28;20041;-78
2024/01/12 01:23:59;;;;;;;0.77;0.77;;;;;;;-3.38;100.00;100520.97;5032532;28;20049;-78
2024/01/12 01:26:25;;;;;;;1.75;1.65;;;;;;;-3.11;100.00;100555.03;5006373;28;20163;-78
2024/01/12 01:28:50;;;;;;;8.18;7.72;;;;;;;-2.95;100.00;100571.28;5027152;28;20131;-80
2024/01/12 01:31:16;;;;;;;2.97;2.80;;;;;;;-3.09;100.00;100558.56;5024331;28;20128;-79
2024/01/12 01:33:41;;;;;;;3.00;2.90;;;;;;;-3.12;100.00;100567.75;5021537;28;20470;-78
2024/01/12 01:36:07;;;;;;;0.40;0.40;;;;;;;-3.86;100.00;100453.25;5029086;28;20554;-78
2024/01/12 01:38:33;;;;;;;3.40;3.20;;;;;;;-3.57;100.00;100478.00;5020879;28;20545;-78
2024/01/12 01:40:58;;;;;;;13.02;11.80;;;;;;;-3.30;100.00;100485.47;5026810;28;20035;-77
2024/01/12 01:43:24;;;;;;;18.08;16.75;;;;;;;-3.49;100.00;100484.47;5027273;28;20827;-78
2024/01/12 01:45:49;;;;;;;2.97;2.78;;;;;;;-2.94;100.00;100573.06;5027459;28;20416;-78
2024/01/12 01:48:15;;;;;;;0.47;0.47;;;;;;;-3.42;100.00;100483.09;5023384;28;20049;-77
2024/01/12 01:50:41;;;;;;;5.75;5.45;;;;;;;-3.98;100.00;100468.81;5013773;28;20050;-78
2024/01/12 01:53:07;;;;;;;14.18;13.27;;;;;;;-3.87;100.00;100443.78;5029641;28;20111;-78
2024/01/12 01:55:33;;;;;;;0.95;0.95;;;;;;;-3.47;100.00;100575.19;5024980;28;20120;-79
2024/01/12 01:57:59;;;;;;;0.63;0.63;;;;;;;-3.26;100.00;100559.28;5028347;28;20069;-78
2024/01/12 02:00:26;;;;;;;28.25;15.30;;;;;;;-3.50;100.00;100549.38;5024959;28;20057;-78
2024/01/12 02:02:52;;;;;;;0.40;0.40;;;;;;;-3.65;100.00;100487.81;5010800;28;20034;-76
2024/01/12 02:05:18;;;;;;;5.57;5.28;;;;;;;-3.60;100.00;100495.78;5017892;28;20528;-77
2024/01/12 02:07:44;;;;;;;1.67;1.58;;;;;;;-3.21;100.00;100569.03;5027621;28;20043;-76
2024/01/12 02:10:09;;;;;;;1.45;1.20;;;;;;;-3.28;100.00;100577.16;5029607;28;20084;-78
2024/01/12 02:12:36;;;;;;;0.88;0.88;;;;;;;-3.51;100.00;100542.47;5027316;28;20100;-78
2024/01/12 02:15:02;;;;;;;1.80;0.98;;;;;;;-3.60;100.00;100508.59;5030347;28;20053;-80
2024/01/12 02:17:27;;;;;;;1.10;1.10;;;;;;;-3.64;100.00;100497.28;5024301;28;20525;-80
2024/01/12 02:20:00;;;;;;;3.75;3.53;;;;;;;-2.99;100.00;100601.03;5014247;28;20121;-78
2024/01/12 02:22:26;;;;;;;1.40;0.88;;;;;;;-3.04;100.00;100594.75;5029266;28;20051;-78
2024/01/12 02:24:52;;;;;;;0.93;0.93;;;;;;;-2.90;100.00;100591.28;5025146;28;20053;-78
2024/01/12 02:27:18;;;;;;;1.20;1.17;;;;;;;-2.83;100.00;100605.38;5018136;28;20038;-78
2024/01/12 02:29:44;;;;;;;1.65;1.55;;;;;;;-3.11;100.00;100570.44;5024251;28;20049;-78
2024/01/12 02:32:10;;;;;;;0.68;0.68;;;;;;;-3.01;100.00;100598.38;5003080;28;20150;-79
2024/01/12 02:34:35;;;;;;;3.22;3.03;;;;;;;-3.03;100.00;100576.88;5020076;28;20041;-79
2024/01/12 02:37:01;;;;;;;1.33;1.25;;;;;;;-2.96;100.00;100606.34;5025541;28;20518;-78
2024/01/12 02:39:26;;;;;;;0.40;0.40;;;;;;;-3.22;100.00;100603.16;5025418;28;20140;-79
2024/01/12 02:41:54;;;;;;;9.77;9.23;;;;;;;-3.07;100.00;100604.84;5019026;28;20073;-78
2024/01/12 02:44:19;;;;;;;8.38;7.82;;;;;;;-3.47;100.00;100515.31;5028319;28;20045;-78
2024/01/12 02:46:45;;;;;;;6.13;5.57;;;;;;;-2.99;100.00;100581.38;5020009;28;20037;-77
2024/01/12 02:49:10;;;;;;;0.30;0.30;;;;;;;-3.33;100.00;100582.81;5024989;28;20140;-79
2024/01/12 02:51:36;;;;;;;8.00;6.53;;;;;;;-3.07;100.00;100608.28;5030901;28;20128;-77
2024/01/12 02:54:02;;;;;;;1.55;1.50;;;;;;;-3.62;100.00;100493.13;5025793;28;20053;-77
2024/01/12 02:56:27;;;;;;;1.02;1.00;;;;;;;-3.22;100.00;100545.84;5025662;28;20372;-79
2024/01/12 02:58:53;;;;;;;3.95;3.75;;;;;;;-3.53;100.00;100527.81;5031307;28;20396;-78
2024/01/12 03:01:19;;;;;;;4.00;3.80;;;;;;;-3.11;100.00;100610.63;5027289;28;20034;-77
2024/01/12 03:03:44;;;;;;;1.30;1.23;;;;;;;-3.58;100.00;100529.19;5019427;28;20054;-79
2024/01/12 03:06:10;;;;;;;2.03;1.92;;;;;;;-3.40;100.00;100627.72;5029226;28;20453;-78
2024/01/12 03:08:36;;;;;;;2.05;1.95;;;;;;;-3.12;100.00;100626.78;5030193;28;20069;-78
2024/01/12 03:11:02;;;;;;;0.70;0.70;;;;;;;-3.78;100.00;100531.47;5025340;28;20061;-79
2024/01/12 03:13:28;;;;;;;0.85;0.85;;;;;;;-4.00;100.00;100543.78;5021406;28;20086;-79
2024/01/12 03:15:53;;;;;;;0.60;0.60;;;;;;;-3.38;100.00;100635.53;5025352;28;20072;-83
2024/01/12 03:18:19;;;;;;;1.30;0.82;;;;;;;-2.98;100.00;100633.59;5023841;28;20159;-82
2024/01/12 03:20:45;;;;;;;2.30;2.13;;;;;;;-3.56;100.00;100507.97;5018673;28;20467;-82
2024/01/12 03:23:10;;;;;;;2.78;2.67;;;;;;;-4.27;100.00;100444.88;5013207;28;20649;-80
2024/01/12 03:25:36;;;;;;;0.52;0.47;;;;;;;-3.11;100.00;100620.88;5023544;28;20080;-79
2024/01/12 03:28:01;;;;;;;1.63;1.55;;;;;;;-2.80;100.00;100634.66;5018383;28;20072;-78
2024/01/12 03:30:27;;;;;;;6.10;5.70;;;;;;;-3.22;100.00;100541.56;5022221;28;20159;-78
2024/01/12 03:32:52;;;;;;;1.00;1.00;;;;;;;-3.41;100.00;100524.25;5025987;28;20617;-80
2024/01/12 03:35:18;;;;;;;0.40;0.40;;;;;;;-3.66;100.00;100501.41;5027114;28;20051;-78
2024/01/12 03:37:43;;;;;;;11.15;10.20;;;;;;;-2.89;100.00;100617.84;5024481;28;20025;-81
2024/01/12 03:40:09;;;;;;;0.40;0.40;;;;;;;-3.41;100.00;100523.38;5019760;28;20041;-78
2024/01/12 03:42:35;;;;;;;26.73;24.20;;;;;;;-2.79;100.00;100627.84;5022664;28;20576;-83
2024/01/12 03:45:01;;;;;;;0.50;0.50;;;;;;;-2.88;100.00;100630.78;5019734;28;20057;-83
2024/01/12 03:47:26;;;;;;;1.80;1.70;;;;;;;-3.50;100.00;100526.28;5020353;28;20401;-78
2024/01/12 03:49:52;;;;;;;1.23;1.02;;;;;;;-3.36;100.00;100560.44;5002554;28;20073;-79
2024/01/12 03:52:17;;;;;;;3.40;3.20;;;;;;;-4.13;100.00;100432.91;5018090;28;20049;-78
2024/01/12 03:54:43;;;;;;;0.88;0.88;;;;;;;-2.99;100.00;100634.41;5024661;28;20049;-80
2024/01/12 03:57:08;;;;;;;7.95;7.45;;;;;;;-3.30;100.00;100580.41;5019757;28;20053;-77
2024/01/12 03:59:34;;;;;;;0.80;0.80;;;;;;;-2.81;100.00;100676.56;5023942;28;20281;-78
2024/01/12 04:01:59;;;;;;;0.63;0.63;;;;;;;-2.86;100.00;100683.06;5016027;28;20477;-78
2024/01/12 04:04:25;;;;;;;1.45;1.35;;;;;;;-2.74;100.00;100692.28;5031980;28;20502;-77
2024/01/12 04:06:50;;;;;;;1.85;1.75;;;;;;;-3.05;100.00;100669.97;5026098;28;20057;-80
2024/01/12 04:09:16;;;;;;;2.60;2.47;;;;;;;-3.43;100.00;100609.59;5025177;28;20045;-79
2024/01/12 04:11:43;;;;;;;3.78;3.58;;;;;;;-3.35;100.00;100600.66;5025988;28;20085;-80
2024/01/12 04:14:08;;;;;;;1.20;1.17;;;;;;;-2.89;100.00;100682.91;5020478;28;20080;-78
2024/01/12 04:16:34;;;;;;;0.70;0.70;;;;;;;-2.81;100.00;100715.06;5029685;28;20383;-79
2024/01/12 04:18:59;;;;;;;0.40;0.40;;;;;;;-3.37;100.00;100592.03;5020253;28;20053;-79
2024/01/12 04:21:25;;;;;;;1.00;0.93;;;;;;;-3.39;100.00;100591.03;5016691;28;20664;-81
2024/01/12 04:23:50;;;;;;;0.77;0.77;;;;;;;-3.59;100.00;100584.72;5019370;28;20037;-81
2024/01/12 04:26:16;;;;;;;0.55;0.55;;;;;;;-3.06;100.00;100657.97;5032737;28;20049;-80
2024/01/12 04:28:41;;;;;;;0.95;0.95;;;;;;;-3.52;100.00;100591.97;5031874;28;20040;-80
2024/01/12 04:31:07;;;;;;;33.40;30.10;;;;;;;-3.32;100.00;100626.50;5023643;28;20057;-82
2024/01/12 04:33:34;;;;;;;0.50;0.50;;;;;;;-3.55;100.00;100599.50;5029893;28;20103;-81
2024/01/12 04:36:00;;;;;;;9.48;8.82;;;;;;;-2.82;100.00;100705.56;5024565;28;20057;-81
2024/01/12 04:38:26;;;;;;;0.70;0.70;;;;;;;-2.79;100.00;100745.94;5021646;28;20069;-78
2024/01/12 04:40:52;;;;;;;13.15;12.55;;;;;;;-2.77;100.00;100708.41;5029353;28;20033;-78
2024/01/12 04:43:18;;;;;;;3.70;3.53;;;;;;;-3.37;100.00;100614.19;5022347;28;20037;-80
2024/01/12 04:45:43;;;;;;;0.60;0.60;;;;;;;-3.04;100.00;100713.72;5029916;28;20119;-79
2024/01/12 04:48:09;;;;;;;5.88;4.03;;;;;;;-2.75;100.00;100742.78;5028059;28;20775;-80
2024/01/12 04:50:35;;;;;;;3.83;3.53;;;;;;;-3.27;100.00;100648.19;5028230;28;20053;-78
2024/01/12 04:53:00;;;;;;;4.05;3.80;;;;;;;-3.37;100.00;100635.63;5026494;28;20647;-77
2024/01/12 04:55:26;;;;;;;22.15;20.85;;;;;;;-2.59;100.00;100739.41;5028470;28;20049;-78
2024/01/12 04:57:52;;;;;;;0.85;0.82;;;;;;;-3.14;100.00;100649.78;5024636;28;20037;-77
2024/01/12 05:00:18;;;;;;;8.52;8.02;;;;;;;-2.92;100.00;100721.25;5025253;28;20065;-77
2024/01/12 05:02:44;;;;;;;14.60;7.05;;;;;;;-2.69;100.00;100729.38;5023068;28;20037;-77
2024/01/12 05:05:09;;;;;;;0.68;0.60;;;;;;;-2.79;100.00;100746.84;5025798;28;20068;-79
2024/01/12 05:07:35;;;;;;;0.40;0.40;;;;;;;-3.34;100.00;100622.97;5025046;28;20045;-79
2024/01/12 05:10:01;;;;;;;1.08;1.08;;;;;;;-2.69;100.00;100753.41;5023574;28;20142;-78
2024/01/12 05:12:26;;;;;;;31.63;15.30;;;;;;;-2.70;100.00;100751.63;5024721;28;20058;-78
2024/01/12 05:14:52;;;;;;;1.13;1.13;;;;;;;-3.32;100.00;100647.03;5023303;28;20054;-81
2024/01/12 05:17:18;;;;;;;6.72;6.43;;;;;;;-2.71;100.00;100737.03;5018685;28;20481;-80
2024/01/12 05:19:44;;;;;;;1.38;1.27;;;;;;;-2.50;100.00;100768.22;5028858;28;20040;-82
2024/01/12 05:22:09;;;;;;;0.68;0.68;;;;;;;-3.46;100.00;100671.00;5035970;28;20042;-80
2024/01/12 05:24:35;;;;;;;3.22;3.03;;;;;;;-3.08;100.00;100701.47;5037954;28;20045;-79
2024/01/12 05:27:00;;;;;;;0.98;0.98;;;;;;;-2.78;100.00;100751.19;5033234;28;20076;-79
2024/01/12 05:29:26;;;;;;;2.15;2.05;;;;;;;-2.62;100.00;100749.53;5011762;28;20124;-81
2024/01/12 05:31:51;;;;;;;3.25;3.15;;;;;;;-2.50;100.00;100749.34;5025502;28;20037;-79
2024/01/12 05:34:17;;;;;;;0.65;0.65;;;;;;;-2.60;100.00;100768.44;5024837;28;20039;-84
2024/01/12 05:36:43;;;;;;;1.20;1.15;;;;;;;-2.90;100.00;100686.28;5023263;28;20119;-79
2024/01/12 05:39:08;;;;;;;8.52;8.13;;;;;;;-3.19;100.00;100640.94;5018794;28;20054;-82
2024/01/12 05:41:34;;;;;;;2.25;2.15;;;;;;;-2.99;100.00;100737.09;5021325;28;20211;-81
2024/01/12 05:44:00;;;;;;;1.13;1.10;;;;;;;-3.54;100.00;100660.25;5013943;28;20519;-80
2024/01/12 05:46:25;;;;;;;4.57;4.25;;;;;;;-3.48;100.00;100641.78;5020092;28;20029;-77
2024/01/12 05:48:51;;;;;;;5.93;5.55;;;;;;;-2.87;100.00;100778.00;5009928;28;20056;-79
2024/01/12 05:51:17;;;;;;;3.55;3.38;;;;;;;-3.19;100.00;100730.75;5014395;28;20591;-76
2024/01/12 05:53:43;;;;;;;41.97;37.70;;;;;;;-3.43;100.00;100681.44;5014890;28;20764;-78
2024/01/12 05:56:08;;;;;;;1.02;1.02;;;;;;;-2.87;100.00;100783.13;5015716;28;20777;-76
2024/01/12 05:58:34;;;;;;;10.82;10.32;;;;;;;-2.76;100.00;100802.66;4998397;28;20087;-75
2024/01/12 06:00:59;;;;;;;2.90;2.80;;;;;;;-3.05;100.00;100785.47;5014000;28;20520;-75
2024/01/12 06:03:28;;;;;;;8.20;6.03;;;;;;;-2.65;100.00;100809.28;5010465;28;20114;-72
2024/01/12 06:05:56;;;;;;;1.23;1.17;;;;;;;-3.14;100.00;100708.81;5020628;28;20096;-74
2024/01/12 06:08:22;;;;;;;0.60;0.60;;;;;;;-3.01;100.00;100736.97;5021847;28;20687;-74
2024/01/12 06:10:48;;;;;;;9.23;8.57;;;;;;;-2.64;100.00;100802.47;5021407;28;20033;-75
2024/01/12 06:13:13;;;;;;;0.55;0.55;;;;;;;-2.93;100.00;100744.25;5018057;28;20033;-73
2024/01/12 06:15:39;;;;;;;0.75;0.75;;;;;;;-2.70;100.00;100776.44;5021122;28;20449;-75
2024/01/12 06:18:05;;;;;;;4.95;4.72;;;;;;;-2.47;100.00;100837.75;5022934;28;20049;-74
2024/01/12 06:20:30;;;;;;;2.10;1.98;;;;;;;-2.84;100.00;100798.72;5017897;28;20056;-76
2024/01/12 06:22:57;;;;;;;8.35;7.82;;;;;;;-2.88;100.00;100782.25;5022810;28;20444;-74
2024/01/12 06:25:23;;;;;;;0.40;0.40;;;;;;;-3.07;100.00;100751.13;5007337;28;20041;-75
2024/01/12 06:27:49;;;;;;;2.97;2.80;;;;;;;-3.14;100.00;100716.50;5007401;28;20183;-73
2024/01/12 06:30:15;;;;;;;34.13;21.27;;;;;;;-3.34;100.00;100658.00;5031966;28;20056;-74
2024/01/12 06:32:41;;;;;;;1.85;1.75;;;;;;;-2.83;100.00;100738.88;5027928;28;20050;-75
2024/01/12 06:35:08;;;;;;;1.40;1.38;;;;;;;-2.74;100.00;100743.66;5024969;28;20054;-74
2024/01/12 06:37:34;;;;;;;0.50;0.50;;;;;;;-2.99;100.00;100729.38;5030888;28;20021;-74
2024/01/12 06:40:00;;;;;;;0.65;0.65;;;;;;;-2.02;100.00;100853.19;5032226;28;20471;-75
2024/01/12 06:42:30;;;;;;;16.90;15.35;;;;;;;-2.62;100.00;100739.25;5040328;28;20056;-75
2024/01/12 06:44:57;;;;;;;3.33;3.22;;;;;;;-2.71;100.00;100749.88;5027185;28;20135;-74
2024/01/12 06:47:22;;;;;;;0.98;0.95;;;;;;;-2.07;100.00;100855.50;5030220;28;20041;-74
2024/01/12 06:49:49;;;;;;;4.90;4.63;;;;;;;-2.66;100.00;100863.16;5023070;28;20036;-74
2024/01/12 06:52:15;;;;;;;16.15;14.55;;;;;;;-2.90;100.00;100727.38;5038206;28;20068;-74
2024/01/12 06:54:44;;;;;;;5.07;4.88;;;;;;;-2.74;100.00;100766.75;5031558;28;20071;-75
2024/01/12 06:57:10;;;;;;;0.45;0.45;;;;;;;-2.31;100.00;100825.81;5010859;28;20424;-74
2024/01/12 06:59:36;;;;;;;1.20;1.10;;;;;;;-2.35;100.00;100845.28;5026866;28;20084;-73
2024/01/12 07:02:01;;;;;;;1.73;1.65;;;;;;;-2.45;100.00;100779.63;5002526;28;20079;-75
2024/01/12 07:04:27;;;;;;;22.77;20.02;;;;;;;-2.26;100.00;100816.69;5034669;28;20115;-74
2024/01/12 07:06:53;;;;;;;4.75;4.53;;;;;;;-1.97;100.00;100860.38;5033343;28;20477;-76
2024/01/12 07:09:21;;;;;;;0.70;0.70;;;;;;;-1.77;100.00;100870.91;5031539;28;20057;-73
2024/01/12 07:11:47;;;;;;;0.70;0.70;;;;;;;-1.96;100.00;100854.44;5027962;28;20080;-75
2024/01/12 07:14:16;;;;;;;9.10;7.05;;;;;;;-2.43;100.00;100774.59;5032791;28;20045;-74
2024/01/12 07:16:42;;;;;;;1.95;1.85;;;;;;;-1.61;100.00;100880.38;5038436;28;20477;-74
2024/01/12 07:19:08;;;;;;;20.67;17.75;;;;;;;-1.63;100.00;100882.88;5038920;28;20053;-74
2024/01/12 07:21:34;;;;;;;2.55;2.45;;;;;;;-1.58;100.00;100873.72;5009070;28;20096;-74
2024/01/12 07:24:02;;;;;;;0.30;0.30;;;;;;;-2.24;100.00;100786.81;5030617;28;20565;-74
2024/01/12 07:26:27;;;;;;;3.13;3.03;;;;;;;-2.29;100.00;100776.28;5024125;28;20053;-76
2024/01/12 07:28:53;;;;;;;9.52;8.98;;;;;;;-1.53;100.00;100898.00;5033773;28;20179;-76
2024/01/12 07:31:18;;;;;;;2.00;1.17;;;;;;;-1.52;100.00;100897.22;5041572;28;20079;-74
2024/01/12 07:33:44;;;;;;;1.75;1.67;;;;;;;-2.22;100.00;100795.50;5022332;28;20076;-74
2024/01/12 07:36:10;;;;;;;2.67;2.58;;;;;;;-1.91;100.00;100805.84;5010753;28;20118;-74
2024/01/12 07:38:36;;;;;;;2.38;1.65;;;;;;;-1.49;100.00;100917.09;5045353;28;20045;-74
2024/01/12 07:41:01;;;;;;;7.63;7.18;;;;;;;-1.65;100.00;100883.56;5035563;28;20037;-73
2024/01/12 07:43:27;;;;;;;1.85;1.75;;;;;;;-1.84;100.00;100853.34;5038338;28;20111;-73
2024/01/12 07:45:53;;;;;;;0.57;0.57;;;;;;;-2.28;100.00;100857.69;5012867;28;20053;-74
2024/01/12 07:48:19;;;;;;;0.50;0.50;;;;;;;-1.93;100.00;100895.72;5035716;28;20056;-74
2024/01/12 07:50:45;;;;;;;1.75;0.88;;;;;;;-2.02;100.00;100820.63;5031253;28;20180;-74
2024/01/12 07:53:10;;;;;;;9.88;9.23;;;;;;;-2.30;100.00;100846.44;5035941;28;20052;-76
2024/01/12 07:55:36;;;;;;;8.70;8.07;;;;;;;-2.29;100.00;100849.91;5036788;28;20025;-75
2024/01/12 07:58:02;;;;;;;1.08;1.08;;;;;;;-1.39;100.00;100955.41;5030000;28;20046;-74
2024/01/12 08:00:28;;;;;;;1.50;1.40;;;;;;;-1.61;100.00;100911.25;5038592;28;20060;-75
2024/01/12 08:02:53;;;;;;;8.90;8.48;;;;;;;-2.15;100.00;100798.50;5037916;28;20044;-74
2024/01/12 08:05:20;;;;;;;0.75;0.75;;;;;;;-1.26;100.00;100959.56;5036808;28;20072;-75
2024/01/12 08:07:45;;;;;;;7.40;7.05;;;;;;;-1.14;100.00;100965.41;5033220;28;20040;-74
2024/01/12 08:10:12;;;;;;;3.60;3.40;;;;;;;-1.30;100.00;100926.72;5032562;28;20041;-74
2024/01/12 08:12:38;;;;;;;0.60;0.60;;;;;;;-0.99;100.00;100941.28;5033186;28;20136;-73
2024/01/12 08:15:05;;;;;;;3.58;3.40;;;;;;;-1.54;100.00;100873.09;5032468;28;20128;-75
2024/01/12 08:17:30;;;;;;;1.02;1.02;;;;;;;-1.49;100.00;100863.06;5032996;28;20515;-74
2024/01/12 08:19:56;;;;;;;0.60;0.60;;;;;;;-0.88;100.00;100965.97;5031333;28;20033;-76
2024/01/12 08:22:21;;;;;;;1.13;1.08;;;;;;;-1.30;100.00;100901.00;5030029;28;20033;-74
2024/01/12 08:24:47;;;;;;;7.00;6.63;;;;;;;-1.12;100.00;100914.00;5030936;28;20161;-73
2024/01/12 08:27:13;;;;;;;0.88;0.88;;;;;;;-1.63;100.00;100809.94;5027303;28;20088;-74
2024/01/12 08:29:38;;;;;;;2.53;2.35;;;;;;;-1.37;100.00;100883.44;5030127;28;20044;-74
2024/01/12 08:32:04;;;;;;;0.73;0.73;;;;;;;-0.66;100.00;100986.03;5030921;28;20091;-74
2024/01/12 08:34:29;;;;;;;10.43;9.77;;;;;;;-0.81;100.00;100975.78;5029967;28;20033;-75
2024/01/12 08:36:55;;;;;;;2.67;2.58;;;;;;;-1.20;100.00;100902.38;5032696;28;20052;-74
2024/01/12 08:39:20;;;;;;;20.75;19.45;;;;;;;-0.82;100.00;100945.69;5011372;28;20085;-74
2024/01/12 08:41:46;;;;;;;2.05;1.92;;;;;;;-0.66;100.00;100956.03;5030453;28;20033;-74
2024/01/12 08:44:12;;;;;;;3.50;0.95;;;;;;;-0.46;100.00;100982.84;5035429;28;20060;-75
2024/01/12 08:46:38;;;;;;;3.15;2.95;;;;;;;-0.97;100.00;100914.81;5032796;28;20400;-74
2024/01/12 08:49:03;;;;;;;2.92;2.72;;;;;;;-0.48;100.00;100981.88;5029854;28;20072;-74
2024/01/12 08:51:30;;;;;;;0.93;0.93;;;;;;;-0.79;100.00;100907.22;5021267;28;20475;-74
2024/01/12 08:53:55;;;;;;;3.67;3.40;;;;;;;-0.31;100.00;100999.94;5029216;28;20045;-74
2024/01/12 08:56:21;;;;;;;7.72;3.50;;;;;;;-0.28;100.00;101005.25;5025444;28;20057;-74
2024/01/12 08:58:47;;;;;;;1.95;1.85;;;;;;;-0.58;100.00;100938.38;5037745;28;20029;-74
2024/01/12 09:01:13;;;;;;;0.77;0.77;;;;;;;-0.23;100.00;101002.13;5037475;28;20075;-74
2024/01/12 09:03:39;;;;;;;4.53;4.30;;;;;;;-0.18;100.00;101001.47;5019728;28;20148;-74
2024/01/12 09:06:04;;;;;;;0.70;0.70;;;;;;;-0.79;100.00;100888.28;5031899;28;20052;-75
2024/01/12 09:08:30;;;;;;;7.13;2.15;;;;;;;-0.14;100.00;101000.81;5022935;28;21296;-74
2024/01/12 09:10:56;;;;;;;3.92;3.13;;;;;;;-0.33;100.00;100996.38;5028818;28;20028;-75
2024/01/12 09:13:21;;;;;;;1.80;1.70;;;;;;;-0.23;100.00;100983.19;5027665;28;20063;-75
2024/01/12 09:15:47;;;;;;;5.32;5.03;;;;;;;-0.41;100.00;100982.22;5032481;28;20298;-73
2024/01/12 09:18:12;;;;;;;16.10;10.57;;;;;;;0.03;100.00;101018.06;5034411;28;20560;-74
2024/01/12 09:20:39;;;;;;;0.40;0.40;;;;;;;-0.40;100.00;101014.91;5026040;28;20470;-74
2024/01/12 09:23:05;;;;;;;6.55;6.05;;;;;;;-0.03;100.00;101025.47;5028200;28;20064;-74
2024/01/12 09:25:32;;;;;;;0.65;0.65;;;;;;;0.06;100.00;101025.09;5015044;28;20539;-75
2024/01/12 09:27:57;;;;;;;2.28;2.08;;;;;;;-0.36;100.00;100919.75;5019431;28;20057;-74
2024/01/12 09:30:23;;;;;;;8.30;7.88;;;;;;;0.32;100.00;101016.97;5012909;28;20052;-74
2024/01/12 09:32:48;;;;;;;6.88;6.43;;;;;;;0.28;100.00;100990.94;5021035;28;20049;-75
2024/01/12 09:35:15;;;;;;;13.95;13.27;;;;;;;-0.07;100.00;100912.63;5028397;28;20037;-75
2024/01/12 09:37:40;;;;;;;0.70;0.70;;;;;;;0.06;100.00;100945.13;5022837;28;20059;-75
2024/01/12 09:40:06;;;;;;;3.60;3.40;;;;;;;-0.11;100.00;100927.09;5032807;28;20064;-74
2024/01/12 09:42:33;;;;;;;1.08;1.05;;;;;;;-0.03;100.00;100999.69;5033340;28;20049;-74
2024/01/12 09:45:01;;;;;;;7.40;7.10;;;;;;;0.06;100.00;101025.97;5034626;28;20124;-74
2024/01/12 09:47:27;;;;;;;1.50;1.40;;;;;;;-0.07;100.00;100962.56;5022458;28;20775;-74
2024/01/12 09:49:54;;;;;;;2.10;2.00;;;;;;;0.05;100.00;100962.28;5023254;28;20113;-74
2024/01/12 09:52:20;;;;;;;10.32;9.50;;;;;;;0.26;100.00;100997.72;5031173;28;20037;-73
2024/01/12 09:54:46;;;;;;;6.65;3.33;;;;;;;-0.04;100.00;100936.91;5030585;28;20036;-74
2024/01/12 09:57:13;;;;;;;1.40;1.40;;;;;;;0.46;100.00;101025.44;5024076;28;20056;-74
2024/01/12 09:59:39;;;;;;;6.47;5.90;;;;;;;0.67;100.00;101054.03;5035763;28;20480;-74
2024/01/12 10:02:08;;;;;;;7.03;6.57;;;;;;;0.70;100.00;101045.53;5016338;28;20397;-74
2024/01/12 10:04:35;;;;;;;2.70;2.60;;;;;;;0.29;100.00;100959.19;5036581;28;20743;-75
2024/01/12 10:07:00;;;;;;;0.63;0.63;;;;;;;0.88;100.00;101043.00;5032382;28;20052;-74
2024/01/12 10:09:26;;;;;;;2.17;2.08;;;;;;;0.65;100.00;101053.06;5032471;28;20045;-75
2024/01/12 10:11:55;;;;;;;15.98;14.82;;;;;;;0.88;100.00;101054.22;5011712;28;20087;-74
2024/01/12 10:14:22;;;;;;;1.70;1.60;;;;;;;1.00;100.00;101049.63;5033920;28;20053;-75
2024/01/12 10:16:59;;;;;;;4.63;3.05;;;;;;;0.17;100.00;100949.13;5036612;28;20032;-73
2024/01/12 10:19:25;;;;;;;9.50;8.60;;;;;;;0.14;100.00;100973.09;5038119;28;20489;-74
2024/01/12 10:21:51;;;;;;;4.18;3.95;;;;;;;0.28;100.00;100971.19;5027239;28;20651;-74
2024/01/12 10:24:19;;;;;;;1.25;1.15;;;;;;;0.07;100.00;100962.34;5024938;28;20041;-74
2024/01/12 10:26:47;;;;;;;4.00;3.80;;;;;;;0.38;100.00;100964.81;5033532;28;20124;-74
2024/01/12 10:29:14;;;;;;;0.80;0.80;;;;;;;0.39;100.00;100953.66;5032608;28;20076;-75
2024/01/12 10:31:43;;;;;;;1.02;1.02;;;;;;;0.45;100.00;100961.72;5025366;28;20033;-74
2024/01/12 10:34:11;;;;;;;0.40;0.40;;;;;;;1.14;100.00;101067.53;5034093;28;20053;-74
2024/01/12 10:36:38;;;;;;;3.13;3.00;;;;;;;1.16;100.00;101059.03;5026856;28;20041;-74
2024/01/12 10:39:04;;;;;;;0.40;0.40;;;;;;;0.84;100.00;101041.94;5034044;28;20073;-74
2024/01/12 10:41:33;;;;;;;1.48;1.38;;;;;;;-0.32;100.00;100962.97;5038142;28;20067;-73
2024/01/12 10:44:03;;;;;;;1.23;1.17;;;;;;;0.36;100.00;100977.63;5022290;28;20068;-74
2024/01/12 10:46:44;;;;;;;11.00;10.18;;;;;;;1.05;100.00;101058.53;5021931;28;20521;-73
2024/01/12 10:49:20;;;;;;;9.10;8.70;;;;;;;0.77;100.00;100983.97;5036034;28;20579;-74
2024/01/12 10:52:28;;;;;;;2.05;1.95;;;;;;;1.24;100.00;101056.78;5030232;28;20136;-74
2024/01/12 10:55:04;;;;;;;4.82;4.60;;;;;;;1.34;100.00;101035.75;4999191;28;20049;-74
2024/01/12 10:57:30;;;;;;;2.67;2.58;;;;;;;1.20;100.00;101004.09;5016983;28;20459;-74
2024/01/12 10:59:57;;;;;;;0.55;0.55;;;;;;;1.42;100.00;101052.50;5035757;28;20365;-74
2024/01/12 11:02:24;;;;;;;1.13;1.13;;;;;;;1.20;100.00;101021.31;5041971;28;20040;-73
2024/01/12 11:04:50;;;;;;;1.17;1.17;;;;;;;1.22;100.00;101048.13;5036945;28;20032;-74
2024/01/12 11:07:17;;;;;;;2.10;2.00;;;;;;;1.39;100.00;101042.03;5014420;28;20061;-75
2024/01/12 11:09:42;;;;;;;6.65;6.25;;;;;;;1.19;100.00;101019.50;5040295;28;20048;-73
2024/01/12 11:12:10;;;;;;;5.95;5.35;;;;;;;0.98;100.00;100962.53;5033794;28;20046;-74